Algona, IA

11:07 AM CDT on April 27, 2017 (GMT -0500)
Algona Municipal

Weather History for KAXA - February, 2012

Change the Weather History Date:

Tuesday, February 14, 2012

  Actual Average Record
Temperature  
Mean Temperature 27 °F -  
Max Temperature 35 °F 29 °F 53 °F (2005)
Min Temperature 19 °F 15 °F -13 °F (2007)
Degree Days  
Heating Degree Days 38    
Moisture  
Dew Point 26 °F    
Average Humidity 95    
Maximum Humidity 100    
Minimum Humidity 81    
Precipitation  
Precipitation 0.06 in - - ()
Sea Level Pressure  
Sea Level Pressure 29.74 in    
Wind  
Wind Speed 8 mph (SSW)    
Max Wind Speed 20 mph    
Max Gust Speed 23 mph    
Visibility 4 miles    
Events Fog , Snow    
Averages and records for this station are not official NWS values.
T = Trace of Precipitation, MM = Missing Value Source: NWS Daily Summary

Daily Weather History Graph

Daily Weather History Graph

Search for Another Location

Airport or City:

Trip Planner

Search our weather history database for the weather conditions in past years. The results will help you decide how hot, cold, wet, or windy it might be!

Date:

Astronomy

Feb. 14, 2012 Rise Set
Actual Time 7:16 AM CST 5:46 PM CST
Civil Twilight 6:47 AM CST 6:15 PM CST
Nautical Twilight 6:14 AM CST 6:48 PM CST
Astronomical Twilight 5:41 AM CST 7:21 PM CST
Moon 1:06 AM CST (2/14) 10:48 AM CST (2/14)
Length of Visible Light 11h 28m
Length of Day
10h 29m
Waning Gibbous, 50% of the Moon is Illuminated
Feb 14
Waning Gibbous
Feb 21
New
Feb 29
First Quarter
Mar 8
Full
Mar 14
Last Quarter

Hourly Weather History & Observations

Time (CST) Temp. Windchill Dew Point Humidity Pressure Visibility Wind Dir Wind Speed Gust Speed Precip Events Conditions
12:15 AM 23.0 °F 18.4 °F 23.0 °F 100% 29.73 in 0.2 mi WSW 3.5 mph - N/A Fog Light Freezing Fog
12:35 AM 23.0 °F 17.0 °F 23.0 °F 100% 29.73 in 0.2 mi West 4.6 mph - N/A Fog Light Freezing Fog
12:55 AM 24.8 °F 19.1 °F 24.8 °F 100% 29.73 in 0.2 mi West 4.6 mph - N/A Fog Light Freezing Fog
1:15 AM 24.8 °F 16.1 °F 24.8 °F 100% 29.73 in 0.2 mi West 8.1 mph - N/A Fog Light Freezing Fog
1:35 AM 24.8 °F 16.9 °F 24.8 °F 100% 29.74 in 1.8 mi West 6.9 mph - N/A   Overcast
1:55 AM 24.8 °F - 24.8 °F 100% 29.73 in 1.8 mi Calm Calm - N/A   Overcast
2:15 AM 24.8 °F 20.5 °F 23.0 °F 93% 29.73 in 1.5 mi West 3.5 mph - N/A   Overcast
2:35 AM 24.8 °F - 23.0 °F 93% 29.73 in 1.2 mi Calm Calm - N/A   Overcast
3:15 AM 24.8 °F 20.5 °F 24.8 °F 100% 29.73 in 2.5 mi SW 3.5 mph - N/A   Overcast
3:35 AM 24.8 °F 19.1 °F 24.8 °F 100% 29.73 in 4.0 mi West 4.6 mph - N/A   Overcast
3:55 AM 24.8 °F 20.5 °F 24.8 °F 100% 29.73 in 7.0 mi WSW 3.5 mph - N/A   Overcast
4:15 AM 24.8 °F 20.5 °F 24.8 °F 100% 29.73 in 7.0 mi SW 3.5 mph - N/A   Overcast
4:35 AM 24.8 °F 19.1 °F 24.8 °F 100% 29.73 in 7.0 mi WSW 4.6 mph - N/A   Overcast
4:55 AM 24.8 °F 16.9 °F 24.8 °F 100% 29.73 in 7.0 mi SW 6.9 mph - N/A   Overcast
5:15 AM 24.8 °F 16.9 °F 24.8 °F 100% 29.74 in 10.0 mi SW 6.9 mph - N/A   Overcast
5:35 AM 24.8 °F 17.9 °F 24.8 °F 100% - 10.0 mi SSW 5.8 mph - N/A   Overcast
5:55 AM 24.8 °F 17.9 °F 24.8 °F 100% 29.74 in 10.0 mi SW 5.8 mph - N/A   Overcast
6:15 AM 24.8 °F 16.9 °F 23.0 °F 93% 29.74 in 10.0 mi SSW 6.9 mph - N/A   Overcast
6:35 AM 21.2 °F 13.6 °F 21.2 °F 100% 29.75 in 7.0 mi SSW 5.8 mph - N/A   Overcast
6:55 AM 21.2 °F 14.9 °F 21.2 °F 100% 29.74 in 7.0 mi South 4.6 mph - N/A Snow Light Snow
7:15 AM 23.0 °F 13.9 °F 21.2 °F 93% 29.75 in 7.0 mi SSW 8.1 mph - N/A   Overcast
7:35 AM 21.2 °F 11.7 °F 21.2 °F 100% 29.76 in 4.0 mi SSW 8.1 mph - N/A   Mostly Cloudy
7:55 AM 21.2 °F 11.7 °F 21.2 °F 100% 29.76 in 0.2 mi SSW 8.1 mph - N/A Snow Light Snow
8:15 AM 21.2 °F 11.7 °F 19.4 °F 93% 29.76 in 0.2 mi SW 8.1 mph - N/A Snow Light Snow
8:35 AM 19.4 °F 10.4 °F 19.4 °F 100% 29.76 in 0.2 mi SSW 6.9 mph - N/A Fog Light Freezing Fog
8:55 AM 19.4 °F 7.9 °F 19.4 °F 100% 29.77 in 0.2 mi SSW 10.4 mph - N/A Fog Light Freezing Fog
9:15 AM 19.4 °F 6.6 °F 19.4 °F 100% 29.77 in 0.2 mi SSW 12.7 mph - N/A Fog Light Freezing Fog
9:35 AM 19.4 °F 7.9 °F 17.6 °F 93% 29.77 in 0.2 mi South 10.4 mph - N/A Fog Light Freezing Fog
9:55 AM 19.4 °F 6.6 °F 19.4 °F 100% 29.77 in 0.8 mi South 12.7 mph - N/A   Overcast
10:15 AM 21.2 °F 9.5 °F 21.2 °F 100% 29.77 in 0.2 mi South 11.5 mph - N/A Fog Light Freezing Fog
10:35 AM 24.8 °F 12.9 °F 24.8 °F 100% 29.76 in 0.5 mi South 13.8 mph - N/A Fog Light Freezing Fog
10:55 AM 24.8 °F 13.4 °F 24.8 °F 100% 29.75 in 1.5 mi South 12.7 mph - N/A   Overcast
11:15 AM 26.6 °F 15.2 °F 26.6 °F 100% 29.76 in 1.5 mi South 13.8 mph - N/A   Overcast
11:35 AM 26.6 °F 14.7 °F 26.6 °F 100% 29.76 in 2.5 mi South 15.0 mph - N/A   Mostly Cloudy
11:55 AM 26.6 °F 14.7 °F 26.6 °F 100% 29.75 in 3.0 mi South 15.0 mph - N/A   Mostly Cloudy
12:15 PM 28.4 °F 16.6 °F 28.4 °F 100% 29.74 in 3.0 mi South 16.1 mph - N/A   Scattered Clouds
12:35 PM 28.4 °F 17.5 °F 28.4 °F 100% 29.73 in 4.0 mi South 13.8 mph - N/A   Scattered Clouds
12:55 PM 28.4 °F 16.6 °F 28.4 °F 100% 29.71 in 5.0 mi SSE 16.1 mph - N/A   Scattered Clouds
1:15 PM 30.2 °F 18.9 °F 28.4 °F 93% 29.71 in 7.0 mi South 16.1 mph 23.0 mph N/A   Scattered Clouds
1:35 PM 30.2 °F 18.5 °F 28.4 °F 93% 29.71 in 5.0 mi South 17.3 mph - N/A   Mostly Cloudy
1:55 PM 32.0 °F 21.6 °F 30.2 °F 93% 29.71 in 5.0 mi South 15.0 mph - N/A   Mostly Cloudy
2:15 PM 33.8 °F 23.5 °F 30.2 °F 87% 29.71 in 4.0 mi South 16.1 mph - N/A   Clear
2:35 PM 33.8 °F 23.2 °F 30.2 °F 87% 29.72 in 4.0 mi South 17.3 mph - 0.01 in   Mostly Cloudy
2:55 PM 33.8 °F 22.5 °F 30.2 °F 87% 29.72 in 5.0 mi South 19.6 mph 23.0 mph 0.02 in   Overcast
3:15 PM 33.8 °F 23.5 °F 30.2 °F 87% 29.71 in 5.0 mi South 16.1 mph - 0.03 in   Mostly Cloudy
3:35 PM 35.6 °F 25.5 °F 30.2 °F 81% 29.71 in 7.0 mi South 17.3 mph - 0.04 in   Mostly Cloudy
3:55 PM 35.6 °F 25.5 °F 30.2 °F 81% 29.72 in 7.0 mi SSW 17.3 mph - 0.04 in   Overcast
4:15 PM 33.8 °F 23.2 °F 30.2 °F 87% 29.72 in 7.0 mi SSW 17.3 mph - N/A   Overcast
4:35 PM 35.6 °F 25.5 °F 30.2 °F 81% 29.72 in 7.0 mi South 17.3 mph - N/A   Overcast
4:55 PM 35.6 °F 26.2 °F 30.2 °F 81% 29.73 in 7.0 mi South 15.0 mph - N/A   Scattered Clouds
5:15 PM 33.8 °F 24.3 °F 30.2 °F 87% 29.73 in 7.0 mi SSW 13.8 mph - N/A   Scattered Clouds
5:35 PM 33.8 °F 24.3 °F 30.2 °F 87% 29.74 in 7.0 mi SSW 13.8 mph - N/A   Scattered Clouds
5:55 PM 32.0 °F 23.6 °F 28.4 °F 87% 29.75 in 7.0 mi SSW 10.4 mph - N/A   Clear
6:15 PM 32.0 °F 21.6 °F 28.4 °F 87% 29.76 in 7.0 mi SSW 15.0 mph - N/A   Scattered Clouds
6:35 PM 30.2 °F 20.8 °F 28.4 °F 93% 29.76 in 7.0 mi South 11.5 mph - N/A   Mostly Cloudy
6:55 PM 30.2 °F 19.8 °F 28.4 °F 93% 29.77 in 7.0 mi SSW 13.8 mph - N/A   Scattered Clouds
7:15 PM 30.2 °F 20.2 °F 28.4 °F 93% 29.77 in 7.0 mi SSW 12.7 mph - N/A   Clear
7:35 PM 28.4 °F 18.5 °F 26.6 °F 93% 29.78 in 5.0 mi SSW 11.5 mph - N/A   Clear
7:55 PM 28.4 °F 19.7 °F 26.6 °F 93% 29.78 in 5.0 mi SSW 9.2 mph - N/A   Clear
8:15 PM 26.6 °F 16.8 °F 24.8 °F 93% 29.79 in 5.0 mi SSW 10.4 mph - N/A   Clear
8:35 PM 26.6 °F 16.8 °F 24.8 °F 93% 29.79 in 4.0 mi SSW 10.4 mph - N/A   Clear
8:55 PM 26.6 °F 17.5 °F 26.6 °F 100% 29.80 in 4.0 mi SW 9.2 mph - N/A   Clear
9:15 PM 26.6 °F 17.5 °F 26.6 °F 100% 29.80 in 4.0 mi SSW 9.2 mph - N/A   Clear
9:35 PM 26.6 °F 17.5 °F 26.6 °F 100% 29.81 in 4.0 mi SSW 9.2 mph - N/A   Clear
9:55 PM 26.6 °F 16.8 °F 24.8 °F 93% 29.81 in 4.0 mi SSW 10.4 mph - N/A   Clear
10:15 PM 24.8 °F 15.3 °F 24.8 °F 100% 29.81 in 4.0 mi SW 9.2 mph - N/A   Clear
10:35 PM 24.8 °F 15.3 °F 24.8 °F 100% 29.82 in 3.0 mi SSW 9.2 mph - N/A   Clear
10:55 PM 24.8 °F 15.3 °F 23.0 °F 93% 29.82 in 3.0 mi South 9.2 mph - N/A   Clear
11:15 PM 23.0 °F 14.7 °F 21.2 °F 93% 29.82 in 3.0 mi South 6.9 mph - N/A   Clear
11:35 PM 21.2 °F 10.1 °F 21.2 °F 100% 29.83 in 1.8 mi South 10.4 mph - N/A   Mist
11:55 PM 21.2 °F 14.9 °F 21.2 °F 100% 29.83 in 1.8 mi SSW 4.6 mph - N/A   Mostly Cloudy